Time;durP1;ratioP1;P1;durP2;ratioP2;P2;SDS_P1;SDS_P2;PMS_P1;PMS_P2;Temp;Humidity;BMP_temperature;BMP_pressure;BME280_temperature;BME280_humidity;BME280_pressure;Samples;Min_cycle;Max_cycle;Signal;HPM_P1;HPM_P2
2023/08/28 00:02:09;;;;;;;0.00;0.00;;;;;;;-144.99;100.00;67352.69;5031843;28;20239;-78
2023/08/28 00:04:34;;;;;;;0.43;0.43;;;;;;;-144.99;100.00;67352.69;5031463;28;20261;-77
2023/08/28 00:06:59;;;;;;;0.00;0.00;;;;;;;-144.99;100.00;67352.69;5031577;28;20175;-77
2023/08/28 00:09:25;;;;;;;0.97;0.97;;;;;;;-144.99;100.00;67352.69;5031707;28;20627;-77
2023/08/28 00:11:50;;;;;;;0.00;0.00;;;;;;;-144.99;100.00;67352.69;5032441;28;20258;-79
2023/08/28 00:14:15;;;;;;;0.40;0.40;;;;;;;-144.99;100.00;67352.69;5031608;28;20194;-77
2023/08/28 00:16:41;;;;;;;0.60;0.60;;;;;;;-144.99;100.00;67352.69;5012845;28;20180;-77
2023/08/28 00:19:06;;;;;;;0.10;0.10;;;;;;;-144.99;100.00;67352.69;5032063;28;20179;-78
2023/08/28 00:21:32;;;;;;;0.60;0.60;;;;;;;-144.99;100.00;67352.69;5014196;28;20184;-77
2023/08/28 00:23:58;;;;;;;0.30;0.23;;;;;;;-144.99;100.00;67352.69;5031575;28;20207;-77
2023/08/28 00:26:23;;;;;;;0.20;0.20;;;;;;;-144.99;100.00;67352.69;5031435;28;20212;-78
2023/08/28 00:28:48;;;;;;;1.00;1.00;;;;;;;-144.99;100.00;67352.69;5031474;28;20235;-77
2023/08/28 00:31:13;;;;;;;0.47;0.47;;;;;;;-144.99;100.00;67352.69;5030438;28;20180;-78
2023/08/28 00:33:39;;;;;;;0.43;0.43;;;;;;;-144.99;100.00;67352.69;5014342;28;20274;-79
2023/08/28 00:36:04;;;;;;;1.30;1.20;;;;;;;-144.99;100.00;67352.69;5031311;28;20577;-77
2023/08/28 00:38:29;;;;;;;0.93;0.83;;;;;;;-144.99;100.00;67352.69;5031757;28;20179;-77
2023/08/28 00:40:55;;;;;;;5.33;2.20;;;;;;;-144.99;100.00;67352.69;5013686;28;20296;-76
2023/08/28 00:43:20;;;;;;;1.30;1.20;;;;;;;-144.99;100.00;67352.69;5013597;28;20188;-79
2023/08/28 00:45:47;;;;;;;3.33;2.43;;;;;;;-144.99;100.00;67352.69;5029410;28;20719;-79
2023/08/28 00:48:16;;;;;;;1.17;1.17;;;;;;;-144.99;100.00;67352.69;5030987;28;20175;-79
2023/08/28 00:50:42;;;;;;;1.30;1.20;;;;;;;-144.99;100.00;67352.69;5030577;28;20214;-77
2023/08/28 00:53:11;;;;;;;1.93;1.80;;;;;;;-144.99;100.00;67352.69;5012649;28;20279;-78
2023/08/28 00:55:37;;;;;;;2.10;2.00;;;;;;;-144.99;100.00;67352.69;5030682;28;20199;-78
2023/08/28 00:58:03;;;;;;;2.07;1.97;;;;;;;-144.99;100.00;67352.69;5013215;28;20237;-78
2023/08/28 01:00:28;;;;;;;2.77;2.50;;;;;;;-144.99;100.00;67352.69;5030624;28;20183;-78
2023/08/28 01:02:53;;;;;;;1.87;1.77;;;;;;;-144.99;100.00;67352.69;5030692;28;20215;-77
2023/08/28 01:05:24;;;;;;;0.97;0.93;;;;;;;-144.99;100.00;67352.69;5013231;28;20211;-77
2023/08/28 01:08:09;;;;;;;2.97;2.77;;;;;;;-144.99;100.00;67352.69;5012824;28;20191;-77
2023/08/28 01:10:41;;;;;;;2.83;2.67;;;;;;;-144.99;100.00;67352.69;5030624;28;20207;-77
2023/08/28 01:13:24;;;;;;;0.57;0.57;;;;;;;-144.99;100.00;67352.69;5031426;28;20246;-78
2023/08/28 01:15:52;;;;;;;1.73;1.63;;;;;;;-144.99;100.00;67352.69;5030794;28;20199;-77
2023/08/28 01:18:18;;;;;;;5.07;3.27;;;;;;;-144.99;100.00;67352.69;5013931;28;20606;-77
2023/08/28 01:20:47;;;;;;;1.87;1.77;;;;;;;-144.99;100.00;67352.69;5015732;28;20230;-78
2023/08/28 01:23:21;;;;;;;3.37;2.80;;;;;;;-144.99;100.00;67352.69;5017178;28;20250;-77
2023/08/28 01:25:47;;;;;;;1.67;1.50;;;;;;;-144.99;100.00;67352.69;5034093;28;20682;-77
2023/08/28 01:28:13;;;;;;;2.27;2.17;;;;;;;-144.99;100.00;67352.69;5016689;28;20184;-77
2023/08/28 01:30:38;;;;;;;2.30;2.13;;;;;;;-144.99;100.00;67352.69;5032861;28;20207;-77
2023/08/28 01:33:03;;;;;;;2.47;2.27;;;;;;;-144.99;100.00;67352.69;5017083;28;20191;-78
2023/08/28 01:35:31;;;;;;;2.80;1.20;;;;;;;-144.99;100.00;67352.69;5016543;28;20203;-77
2023/08/28 01:38:19;;;;;;;1.70;1.63;;;;;;;-144.99;100.00;67352.69;5033897;28;20643;-77
2023/08/28 01:41:08;;;;;;;1.43;1.33;;;;;;;-144.99;100.00;67352.69;5010655;28;20188;-78
2023/08/28 01:43:42;;;;;;;15.30;2.50;;;;;;;-144.99;100.00;67352.69;5034273;28;20180;-77
2023/08/28 01:46:08;;;;;;;2.47;2.30;;;;;;;-144.99;100.00;67352.69;5016060;28;20219;-79
2023/08/28 01:48:35;;;;;;;2.77;2.20;;;;;;;-144.99;100.00;67352.69;5033803;28;20203;-79
2023/08/28 01:51:00;;;;;;;1.57;1.57;;;;;;;-144.99;100.00;67352.69;5034870;28;20241;-78
2023/08/28 01:53:26;;;;;;;2.73;2.53;;;;;;;-144.99;100.00;67352.69;5016778;28;20191;-78
2023/08/28 01:56:16;;;;;;;2.40;2.30;;;;;;;-144.99;100.00;67352.69;5033615;28;20200;-77
2023/08/28 01:58:44;;;;;;;13.80;3.07;;;;;;;-144.99;100.00;67352.69;5016269;28;20699;-78
2023/08/28 02:01:10;;;;;;;1.90;1.80;;;;;;;-144.99;100.00;67352.69;5034727;28;20180;-77
2023/08/28 02:03:38;;;;;;;2.33;2.13;;;;;;;-144.99;100.00;67352.69;5034308;28;20632;-78
2023/08/28 02:06:03;;;;;;;4.37;4.07;;;;;;;-144.99;100.00;67352.69;5016236;28;20214;-78
2023/08/28 02:08:29;;;;;;;2.00;1.90;;;;;;;-144.99;100.00;67352.69;5034643;28;20187;-78
2023/08/28 02:10:55;;;;;;;1.57;1.47;;;;;;;-144.99;100.00;67352.69;5034687;28;20516;-78
2023/08/28 02:13:21;;;;;;;3.43;3.23;;;;;;;-144.99;100.00;67352.69;5016323;28;20249;-79
2023/08/28 02:15:46;;;;;;;7.80;2.90;;;;;;;-144.99;100.00;67352.69;5033163;28;20219;-77
2023/08/28 02:18:11;;;;;;;1.90;1.67;;;;;;;-144.99;100.00;67352.69;5034364;28;20180;-77
2023/08/28 02:20:37;;;;;;;4.03;3.70;;;;;;;-144.99;100.00;67352.69;5034095;28;20639;-78
2023/08/28 02:23:02;;;;;;;1.90;1.80;;;;;;;-144.99;100.00;67352.69;5034056;28;20184;-78
2023/08/28 02:25:27;;;;;;;1.13;1.13;;;;;;;-144.99;100.00;67352.69;5032068;28;20279;-78
2023/08/28 02:27:53;;;;;;;1.90;1.80;;;;;;;-144.99;100.00;67352.69;5032983;28;20279;-77
2023/08/28 02:30:18;;;;;;;6.23;4.23;;;;;;;-144.99;100.00;67352.69;5033011;28;20683;-78
2023/08/28 02:32:44;;;;;;;1.87;1.77;;;;;;;-144.99;100.00;67352.69;5031632;28;20183;-78
2023/08/28 02:35:11;;;;;;;2.10;2.00;;;;;;;-144.99;100.00;67352.69;5013728;28;20249;-78
2023/08/28 02:37:36;;;;;;;4.07;3.77;;;;;;;-144.99;100.00;67352.69;5012253;28;20194;-79
2023/08/28 02:40:03;;;;;;;2.03;1.93;;;;;;;-144.99;100.00;67352.69;5013620;28;20255;-79
2023/08/28 02:42:28;;;;;;;2.53;2.40;;;;;;;-144.99;100.00;67352.69;5028681;28;20683;-77
2023/08/28 02:44:54;;;;;;;1.50;1.40;;;;;;;-144.99;100.00;67352.69;5012827;28;20200;-77
2023/08/28 02:47:19;;;;;;;2.73;2.53;;;;;;;-144.99;100.00;67352.69;5015172;28;20471;-77
2023/08/28 02:49:44;;;;;;;3.30;3.10;;;;;;;-144.99;100.00;67352.69;5030952;28;20203;-77
2023/08/28 02:52:10;;;;;;;2.37;2.17;;;;;;;-144.99;100.00;67352.69;5033275;28;20611;-77
2023/08/28 02:54:35;;;;;;;4.77;4.17;;;;;;;-144.99;100.00;67352.69;5032706;28;20203;-77
2023/08/28 02:57:00;;;;;;;3.03;2.73;;;;;;;-144.99;100.00;67352.69;5032960;28;20180;-79
2023/08/28 02:59:27;;;;;;;4.33;4.03;;;;;;;-144.99;100.00;67352.69;5033061;28;20227;-78
2023/08/28 03:01:52;;;;;;;4.93;4.53;;;;;;;-144.99;100.00;67352.69;5033029;28;20258;-78
2023/08/28 03:04:18;;;;;;;2.97;2.77;;;;;;;-144.99;100.00;67352.69;5032742;28;20309;-77
2023/08/28 03:06:43;;;;;;;3.03;2.83;;;;;;;-144.99;100.00;67352.69;5032274;28;20186;-78
2023/08/28 03:09:08;;;;;;;3.33;2.90;;;;;;;-144.99;100.00;67352.69;5031772;28;20339;-78
2023/08/28 03:11:34;;;;;;;4.90;4.60;;;;;;;-144.99;100.00;67352.69;5032237;28;20183;-78
2023/08/28 03:14:00;;;;;;;12.07;3.90;;;;;;;-144.99;100.00;67352.69;5031952;28;20201;-78
2023/08/28 03:16:25;;;;;;;3.53;3.23;;;;;;;-144.99;100.00;67352.69;5031467;28;20745;-79
2023/08/28 03:18:50;;;;;;;4.77;4.37;;;;;;;-144.99;100.00;67352.69;5032225;28;20202;-79
2023/08/28 03:21:16;;;;;;;3.93;3.63;;;;;;;-144.99;100.00;67352.69;5031795;28;20180;-77
2023/08/28 03:23:41;;;;;;;3.23;3.03;;;;;;;-144.99;100.00;67352.69;5031279;28;20267;-78
2023/08/28 03:26:07;;;;;;;3.83;3.60;;;;;;;-144.99;100.00;67352.69;5031389;28;20208;-78
2023/08/28 03:28:32;;;;;;;5.97;4.73;;;;;;;-144.99;100.00;67352.69;5031595;28;20190;-77
2023/08/28 03:30:59;;;;;;;5.90;4.47;;;;;;;-144.99;100.00;67352.69;5014039;28;20187;-77
2023/08/28 03:33:26;;;;;;;4.17;3.13;;;;;;;-144.99;100.00;67352.69;5014610;28;20187;-77
2023/08/28 03:35:52;;;;;;;10.30;5.27;;;;;;;-144.99;100.00;67352.69;5031049;28;20207;-78
2023/08/28 03:38:18;;;;;;;4.10;3.83;;;;;;;-144.99;100.00;67352.69;5017423;28;20188;-78
2023/08/28 03:40:44;;;;;;;6.40;5.83;;;;;;;-144.99;100.00;67352.69;5010895;28;20184;-77
2023/08/28 03:43:10;;;;;;;3.83;3.53;;;;;;;-144.99;100.00;67352.69;5011811;28;20184;-77
2023/08/28 03:45:36;;;;;;;12.93;5.77;;;;;;;-144.99;100.00;67352.69;5011703;28;20291;-77
2023/08/28 03:48:01;;;;;;;6.97;6.47;;;;;;;-144.99;100.00;67352.69;5013808;28;20233;-78
2023/08/28 03:50:29;;;;;;;3.87;3.37;;;;;;;-144.99;100.00;67352.69;5032496;28;20679;-79
2023/08/28 03:52:56;;;;;;;9.10;5.60;;;;;;;-144.99;100.00;67352.69;5031972;28;20175;-79
2023/08/28 03:55:21;;;;;;;7.17;6.57;;;;;;;-144.99;100.00;67352.69;5031711;28;20691;-78
2023/08/28 03:57:46;;;;;;;4.70;4.33;;;;;;;-144.99;100.00;67352.69;5013562;28;20187;-78
2023/08/28 04:00:13;;;;;;;4.60;4.23;;;;;;;-144.99;100.00;67352.69;5032380;28;20191;-77
2023/08/28 04:02:40;;;;;;;2.40;2.27;;;;;;;-144.99;100.00;67352.69;5032065;28;20187;-78
2023/08/28 04:05:06;;;;;;;4.03;3.73;;;;;;;-144.99;100.00;67352.69;5031438;28;20261;-77
2023/08/28 04:07:32;;;;;;;2.53;2.43;;;;;;;-144.99;100.00;67352.69;5013499;28;20191;-78
2023/08/28 04:10:00;;;;;;;7.23;6.63;;;;;;;-144.99;100.00;67352.69;5031364;28;20211;-78
2023/08/28 04:12:26;;;;;;;4.77;4.30;;;;;;;-144.99;100.00;67352.69;5031540;28;20179;-77
2023/08/28 04:14:51;;;;;;;9.43;7.17;;;;;;;-144.99;100.00;67352.69;5013594;28;20627;-77
2023/08/28 04:17:17;;;;;;;5.43;4.93;;;;;;;-144.99;100.00;67352.69;5031068;28;20259;-77
2023/08/28 04:19:42;;;;;;;5.47;5.07;;;;;;;-144.99;100.00;67352.69;5038540;28;20204;-78
2023/08/28 04:22:08;;;;;;;4.77;4.43;;;;;;;-144.99;100.00;67352.69;5038551;28;20179;-79
2023/08/28 04:24:33;;;;;;;9.40;5.33;;;;;;;-144.99;100.00;67352.69;5039630;28;20203;-77
2023/08/28 04:26:59;;;;;;;8.53;6.60;;;;;;;-144.99;100.00;67352.69;5039860;28;20199;-78
2023/08/28 04:29:24;;;;;;;5.17;4.77;;;;;;;-144.99;100.00;67352.69;5036226;28;20581;-79
2023/08/28 04:31:50;;;;;;;7.40;6.70;;;;;;;-144.99;100.00;67352.69;5033059;28;20183;-79
2023/08/28 04:34:15;;;;;;;8.93;8.13;;;;;;;-144.99;100.00;67352.69;5014772;28;20716;-79
2023/08/28 04:36:41;;;;;;;6.60;5.53;;;;;;;-144.99;100.00;67352.69;5031301;28;20191;-78
2023/08/28 04:39:06;;;;;;;6.57;6.00;;;;;;;-144.99;100.00;67352.69;5031266;28;20211;-79
2023/08/28 04:41:33;;;;;;;5.63;5.13;;;;;;;-144.99;100.00;67352.69;5031458;28;20211;-79
2023/08/28 04:43:58;;;;;;;9.43;5.57;;;;;;;-144.99;100.00;67352.69;5030895;28;20223;-78
2023/08/28 04:46:25;;;;;;;6.63;6.13;;;;;;;-144.99;100.00;67352.69;5031062;28;20239;-78
2023/08/28 04:48:50;;;;;;;6.70;6.20;;;;;;;-144.99;100.00;67352.69;5031318;28;20218;-79
2023/08/28 04:51:16;;;;;;;10.87;6.37;;;;;;;-144.99;100.00;67352.69;5013199;28;20188;-78
2023/08/28 04:53:41;;;;;;;7.97;7.00;;;;;;;-144.99;100.00;67352.69;5031577;28;20246;-78
2023/08/28 04:56:06;;;;;;;7.60;6.97;;;;;;;-144.99;100.00;67352.69;5034159;28;20203;-78
2023/08/28 04:58:33;;;;;;;18.13;6.03;;;;;;;-144.99;100.00;67352.69;5036394;28;20754;-78
2023/08/28 05:01:00;;;;;;;1.90;1.80;;;;;;;-144.99;100.00;67352.69;5034944;28;20636;-78
2023/08/28 05:03:25;;;;;;;4.53;4.20;;;;;;;-144.99;100.00;67352.69;5035437;28;20229;-78
2023/08/28 05:05:50;;;;;;;6.50;5.93;;;;;;;-144.99;100.00;67352.69;5016025;28;20208;-79
2023/08/28 05:08:16;;;;;;;2.83;2.63;;;;;;;-144.99;100.00;67352.69;5034349;28;20187;-78
2023/08/28 05:10:41;;;;;;;4.80;4.33;;;;;;;-144.99;100.00;67352.69;5034412;28;20625;-78
2023/08/28 05:13:07;;;;;;;6.97;6.27;;;;;;;-144.99;100.00;67352.69;5017224;28;20327;-77
2023/08/28 05:15:32;;;;;;;19.50;5.60;;;;;;;-144.99;100.00;67352.69;5034044;28;20254;-78
2023/08/28 05:17:57;;;;;;;5.90;5.37;;;;;;;-144.99;100.00;67352.69;5034273;28;20715;-77
2023/08/28 05:20:23;;;;;;;4.87;4.53;;;;;;;-144.99;100.00;67352.69;5034676;28;20179;-78
2023/08/28 05:22:48;;;;;;;8.77;5.37;;;;;;;-144.99;100.00;67352.69;5034243;28;20670;-78
2023/08/28 05:25:13;;;;;;;4.40;4.10;;;;;;;-144.99;100.00;67352.69;5033635;28;20204;-79
2023/08/28 05:27:38;;;;;;;3.43;3.17;;;;;;;-144.99;100.00;67352.69;5016262;28;20219;-78
2023/08/28 05:30:04;;;;;;;5.77;5.27;;;;;;;-144.99;100.00;67352.69;5034292;28;20289;-78
2023/08/28 05:32:30;;;;;;;5.67;5.17;;;;;;;-144.99;100.00;67352.69;5016938;28;20557;-79
2023/08/28 05:34:58;;;;;;;5.13;4.73;;;;;;;-144.99;100.00;67352.69;5034375;28;20206;-79
2023/08/28 05:37:24;;;;;;;1.77;1.73;;;;;;;-144.99;100.00;67352.69;5016254;28;20176;-78
2023/08/28 05:39:50;;;;;;;3.83;3.53;;;;;;;-144.99;100.00;67352.69;5034358;28;20180;-77
2023/08/28 05:42:15;;;;;;;3.27;3.07;;;;;;;-144.99;100.00;67352.69;5034415;28;20182;-79
2023/08/28 05:44:41;;;;;;;6.30;5.77;;;;;;;-144.99;100.00;67352.69;5033509;28;20215;-79
2023/08/28 05:47:07;;;;;;;5.27;4.00;;;;;;;-144.99;100.00;67352.69;5015523;28;20192;-79
2023/08/28 05:49:32;;;;;;;3.97;3.67;;;;;;;-144.99;100.00;67352.69;5033324;28;20207;-79
2023/08/28 05:51:57;;;;;;;9.57;7.37;;;;;;;-144.99;100.00;67352.69;5035805;28;20225;-79
2023/08/28 05:54:23;;;;;;;5.83;5.43;;;;;;;-144.99;100.00;67352.69;5017804;28;20294;-79
2023/08/28 05:56:48;;;;;;;5.27;4.77;;;;;;;-144.99;100.00;67352.69;5017302;28;20656;-78
2023/08/28 05:59:13;;;;;;;7.27;6.77;;;;;;;-144.99;100.00;67352.69;5036466;28;20172;-78
2023/08/28 06:01:39;;;;;;;3.73;3.53;;;;;;;-144.99;100.00;67352.69;5034787;28;20191;-77
2023/08/28 06:04:04;;;;;;;4.87;4.50;;;;;;;-144.99;100.00;67352.69;5034227;28;20176;-77
2023/08/28 06:06:30;;;;;;;7.97;7.37;;;;;;;-144.99;100.00;67352.69;5033523;28;20275;-77
2023/08/28 06:08:55;;;;;;;4.67;4.27;;;;;;;-144.99;100.00;67352.69;5016099;28;20687;-77
2023/08/28 06:11:20;;;;;;;5.70;5.23;;;;;;;-144.99;100.00;67352.69;5034656;28;20191;-77
2023/08/28 06:13:45;;;;;;;6.07;5.27;;;;;;;-144.99;100.00;67352.69;5033857;28;20737;-78
2023/08/28 06:16:11;;;;;;;4.53;2.63;;;;;;;-144.99;100.00;67352.69;5015868;28;20196;-78
2023/08/28 06:18:36;;;;;;;4.87;4.57;;;;;;;-144.99;100.00;67352.69;5033813;28;20188;-78
2023/08/28 06:21:02;;;;;;;5.37;3.40;;;;;;;-144.99;100.00;67352.69;5015767;28;20202;-79
2023/08/28 06:23:27;;;;;;;1.47;1.43;;;;;;;-144.99;100.00;67352.69;5015552;28;20586;-78
2023/08/28 06:25:53;;;;;;;3.93;3.60;;;;;;;-144.99;100.00;67352.69;5015172;28;20227;-77
2023/08/28 06:28:19;;;;;;;5.30;4.90;;;;;;;-144.99;100.00;67352.69;5033761;28;20176;-77
2023/08/28 06:30:44;;;;;;;11.30;4.13;;;;;;;-144.99;100.00;67352.69;5034310;28;20687;-77
2023/08/28 06:33:09;;;;;;;2.60;2.40;;;;;;;-144.99;100.00;67352.69;5034720;28;20175;-77
2023/08/28 06:35:35;;;;;;;7.43;6.83;;;;;;;-144.99;100.00;67352.69;5015451;28;20206;-77
2023/08/28 06:38:00;;;;;;;6.77;6.07;;;;;;;-144.99;100.00;67352.69;5033360;28;20721;-78
2023/08/28 06:40:25;;;;;;;2.60;2.40;;;;;;;-144.99;100.00;67352.69;5015535;28;20180;-77
2023/08/28 06:42:51;;;;;;;2.77;2.60;;;;;;;-144.99;100.00;67352.69;5033334;28;20190;-77
2023/08/28 06:45:16;;;;;;;4.40;4.03;;;;;;;-144.99;100.00;67352.69;5015696;28;20683;-78
2023/08/28 06:47:41;;;;;;;4.30;3.97;;;;;;;-144.99;100.00;67352.69;5031701;28;20193;-77
2023/08/28 06:50:07;;;;;;;4.30;4.00;;;;;;;-144.99;100.00;67352.69;5009996;28;20204;-78
2023/08/28 06:52:32;;;;;;;2.90;2.70;;;;;;;-144.99;100.00;67352.69;5013702;28;20676;-77
2023/08/28 06:54:58;;;;;;;3.87;3.67;;;;;;;-144.99;100.00;67352.69;5011962;28;20204;-78
2023/08/28 06:57:23;;;;;;;8.90;5.87;;;;;;;-144.99;100.00;67352.69;5032693;28;20245;-78
2023/08/28 06:59:49;;;;;;;5.53;5.13;;;;;;;-144.99;100.00;67352.69;5015187;28;20183;-77
2023/08/28 07:02:14;;;;;;;2.63;2.53;;;;;;;-144.99;100.00;67352.69;5033424;28;20203;-77
2023/08/28 07:04:40;;;;;;;3.30;3.00;;;;;;;-144.99;100.00;67352.69;5032507;28;20222;-78
2023/08/28 07:07:05;;;;;;;3.70;3.40;;;;;;;-144.99;100.00;67352.69;5032807;28;20262;-78
2023/08/28 07:09:30;;;;;;;3.93;3.63;;;;;;;-144.99;100.00;67352.69;5015096;28;20207;-78
2023/08/28 07:11:56;;;;;;;4.87;4.40;;;;;;;-144.99;100.00;67352.69;5033074;28;20567;-79
2023/08/28 07:14:21;;;;;;;2.77;2.57;;;;;;;-144.99;100.00;67352.69;5014851;28;20192;-78
2023/08/28 07:16:47;;;;;;;3.63;3.40;;;;;;;-144.99;100.00;67352.69;5013858;28;20176;-78
2023/08/28 07:19:12;;;;;;;1.83;1.73;;;;;;;-144.99;100.00;67352.69;5032185;28;20791;-80
2023/08/28 07:21:37;;;;;;;3.43;3.23;;;;;;;-144.99;100.00;67352.69;5032900;28;20187;-77
2023/08/28 07:24:03;;;;;;;1.57;1.43;;;;;;;-144.99;100.00;67352.69;5033491;28;20195;-81
2023/08/28 07:26:28;;;;;;;3.97;3.57;;;;;;;-144.99;100.00;67352.69;5033243;28;20180;-78
2023/08/28 07:28:54;;;;;;;8.50;4.53;;;;;;;-144.99;100.00;67352.69;5032469;28;20672;-77
2023/08/28 07:31:19;;;;;;;4.43;4.13;;;;;;;-144.99;100.00;67352.69;5014240;28;20184;-79
2023/08/28 07:33:44;;;;;;;4.23;3.90;;;;;;;-144.99;100.00;67352.69;5032411;28;20183;-79
2023/08/28 07:36:10;;;;;;;2.83;2.63;;;;;;;-144.99;100.00;67352.69;5032095;28;20207;-78
2023/08/28 07:38:35;;;;;;;7.83;4.23;;;;;;;-144.99;100.00;67352.69;5015193;28;20541;-78
2023/08/28 07:41:00;;;;;;;3.17;2.90;;;;;;;-144.99;100.00;67352.69;5014887;28;20563;-78
2023/08/28 07:43:26;;;;;;;4.33;3.93;;;;;;;-144.99;100.00;67352.69;5032721;28;20214;-79
2023/08/28 07:45:51;;;;;;;3.87;3.23;;;;;;;-144.99;100.00;67352.69;5014003;28;20265;-79
2023/08/28 07:48:16;;;;;;;2.00;1.90;;;;;;;-144.99;100.00;67352.69;5032939;28;20269;-79
2023/08/28 07:50:45;;;;;;;2.37;2.13;;;;;;;-144.99;100.00;67352.69;5014901;28;20257;-80
2023/08/28 07:53:10;;;;;;;2.13;0.57;;;;;;;-144.99;100.00;67352.69;5033241;28;20194;-80
2023/08/28 07:55:37;;;;;;;1.00;1.00;;;;;;;-144.99;100.00;67352.69;5032600;28;20207;-82
2023/08/28 07:58:04;;;;;;;9.30;1.37;;;;;;;-144.99;100.00;67352.69;5032634;28;20609;-81
2023/08/28 08:00:34;;;;;;;2.47;2.37;;;;;;;-144.99;100.00;67352.69;5015144;28;20211;-79
2023/08/28 08:03:00;;;;;;;1.57;1.47;;;;;;;-144.99;100.00;67352.69;5033419;28;20187;-82
2023/08/28 08:05:26;;;;;;;3.23;1.47;;;;;;;-144.99;100.00;67352.69;5033156;28;20241;-78
2023/08/28 08:07:52;;;;;;;1.57;1.47;;;;;;;-144.99;100.00;67352.69;5033659;28;20187;-79
2023/08/28 08:10:17;;;;;;;0.20;0.20;;;;;;;-144.99;100.00;67352.69;5033971;28;20208;-79
2023/08/28 08:12:44;;;;;;;0.40;0.40;;;;;;;-144.99;100.00;67352.69;5023296;28;20699;-79
2023/08/28 08:15:10;;;;;;;2.83;2.63;;;;;;;-144.99;100.00;67352.69;5010669;28;20239;-80
2023/08/28 08:17:36;;;;;;;3.20;2.83;;;;;;;-144.99;100.00;67352.69;5015823;28;20181;-78
2023/08/28 08:20:04;;;;;;;0.10;0.10;;;;;;;-144.99;100.00;67352.69;5002428;28;20655;-78
2023/08/28 08:22:30;;;;;;;0.80;0.80;;;;;;;-144.99;100.00;67352.69;5021502;28;20188;-78
2023/08/28 08:24:55;;;;;;;1.43;1.33;;;;;;;-144.99;100.00;67352.69;5028434;28;20211;-79
2023/08/28 08:27:20;;;;;;;1.17;1.17;;;;;;;-144.99;100.00;67352.69;5014188;28;20183;-78
2023/08/28 08:29:46;;;;;;;0.50;0.50;;;;;;;-144.99;100.00;67352.69;5035743;28;20655;-78
2023/08/28 08:32:11;;;;;;;0.30;0.30;;;;;;;-144.99;100.00;67352.69;5017404;28;20266;-79
2023/08/28 08:34:36;;;;;;;2.00;1.73;;;;;;;-144.99;100.00;67352.69;5015883;28;20211;-78
2023/08/28 08:37:02;;;;;;;8.10;2.83;;;;;;;-144.99;100.00;67352.69;5016811;28;20226;-78
2023/08/28 08:39:27;;;;;;;0.03;0.03;;;;;;;-144.99;100.00;67352.69;5017148;28;20557;-79
2023/08/28 08:41:53;;;;;;;1.20;1.10;;;;;;;-144.99;100.00;67352.69;5017602;28;20675;-78
2023/08/28 08:44:18;;;;;;;1.17;0.67;;;;;;;-144.99;100.00;67352.69;5016803;28;20798;-78
2023/08/28 08:46:45;;;;;;;2.07;1.87;;;;;;;-144.99;100.00;67352.69;5024985;28;20282;-78
2023/08/28 08:49:16;;;;;;;1.57;1.50;;;;;;;-144.99;100.00;67352.69;5013403;28;20219;-78
2023/08/28 08:51:46;;;;;;;0.10;0.10;;;;;;;-144.99;100.00;67352.69;5016475;28;20243;-78
2023/08/28 08:54:20;;;;;;;1.23;1.23;;;;;;;-144.99;100.00;67352.69;5018219;28;20187;-78
2023/08/28 08:56:50;;;;;;;0.00;0.00;;;;;;;-144.99;100.00;67352.69;5017868;28;20184;-78
2023/08/28 08:59:16;;;;;;;1.57;1.47;;;;;;;-144.99;100.00;67352.69;5034787;28;20179;-78
2023/08/28 09:01:42;;;;;;;0.50;0.50;;;;;;;-144.99;100.00;67352.69;5016762;28;20199;-78
2023/08/28 09:04:08;;;;;;;0.33;0.33;;;;;;;-144.99;100.00;67352.69;5017837;28;20194;-78
2023/08/28 09:06:35;;;;;;;0.47;0.47;;;;;;;-144.99;100.00;67352.69;5034967;28;20180;-78
2023/08/28 09:09:05;;;;;;;0.53;0.53;;;;;;;-144.99;100.00;67352.69;5016498;28;20195;-78
2023/08/28 09:11:31;;;;;;;4.07;1.10;;;;;;;-144.99;100.00;67352.69;5035405;28;20691;-78
2023/08/28 09:13:56;;;;;;;1.10;1.10;;;;;;;-144.99;100.00;67352.69;5016841;28;20184;-78
2023/08/28 09:16:22;;;;;;;1.03;0.83;;;;;;;-144.99;100.00;67352.69;5017435;28;20275;-78
2023/08/28 09:18:48;;;;;;;1.27;0.87;;;;;;;-144.99;100.00;67352.69;5035151;28;20580;-79
2023/08/28 09:21:14;;;;;;;0.43;0.43;;;;;;;-144.99;100.00;67352.69;5035957;28;20198;-78
2023/08/28 09:23:44;;;;;;;0.87;0.87;;;;;;;-144.99;100.00;67352.69;5017336;28;20691;-78
2023/08/28 09:26:22;;;;;;;0.60;0.60;;;;;;;-144.99;100.00;67352.69;5016913;28;20687;-78
2023/08/28 09:29:01;;;;;;;0.30;0.30;;;;;;;-144.99;100.00;67352.69;5034694;28;20266;-79
2023/08/28 09:31:28;;;;;;;2.17;1.97;;;;;;;-144.99;100.00;67352.69;5034593;28;20190;-78
2023/08/28 09:33:53;;;;;;;0.73;0.73;;;;;;;-144.99;100.00;67352.69;5035121;28;20270;-78
2023/08/28 09:36:19;;;;;;;1.53;1.23;;;;;;;-144.99;100.00;67352.69;5017388;28;20206;-78
2023/08/28 09:38:44;;;;;;;0.97;0.60;;;;;;;-144.99;100.00;67352.69;5034484;28;20270;-78
2023/08/28 09:41:10;;;;;;;0.13;0.13;;;;;;;-144.99;100.00;67352.69;5033517;28;20705;-79
2023/08/28 09:43:36;;;;;;;0.00;0.00;;;;;;;-144.99;100.00;67352.69;5033191;28;20188;-79
2023/08/28 09:46:04;;;;;;;0.50;0.50;;;;;;;-144.99;100.00;67352.69;5032391;28;20239;-79
2023/08/28 09:48:34;;;;;;;0.30;0.30;;;;;;;-144.99;100.00;67352.69;5033371;28;20854;-78
2023/08/28 09:51:04;;;;;;;0.90;0.90;;;;;;;-144.99;100.00;67352.69;5008398;28;20727;-78
2023/08/28 09:53:30;;;;;;;1.50;0.60;;;;;;;-144.99;100.00;67352.69;5018181;28;20195;-78
2023/08/28 09:55:57;;;;;;;0.40;0.37;;;;;;;-144.99;100.00;67352.69;5035116;28;20204;-78
2023/08/28 09:58:23;;;;;;;0.07;0.07;;;;;;;-144.99;100.00;67352.69;5017154;28;20658;-79
2023/08/28 10:00:50;;;;;;;0.00;0.00;;;;;;;-144.99;100.00;67352.69;5034877;28;20529;-78
2023/08/28 10:03:16;;;;;;;1.43;1.33;;;;;;;-144.99;100.00;67352.69;5034603;28;20176;-78
2023/08/28 10:05:44;;;;;;;0.20;0.20;;;;;;;-144.99;100.00;67352.69;5033221;28;20231;-78
2023/08/28 10:08:11;;;;;;;0.50;0.50;;;;;;;-144.99;100.00;67352.69;5034778;28;20187;-78
2023/08/28 10:10:39;;;;;;;0.67;0.67;;;;;;;-144.99;100.00;67352.69;5016727;28;20210;-78
2023/08/28 10:13:06;;;;;;;0.10;0.10;;;;;;;-144.99;100.00;67352.69;5034651;28;20193;-79
2023/08/28 10:15:38;;;;;;;2.80;1.90;;;;;;;-144.99;100.00;67352.69;5034376;28;20199;-78
2023/08/28 10:18:09;;;;;;;6.27;1.37;;;;;;;-144.99;100.00;67352.69;5032840;28;20183;-78
2023/08/28 10:20:35;;;;;;;0.40;0.40;;;;;;;-144.99;100.00;67352.69;5016013;28;20184;-78
2023/08/28 10:23:01;;;;;;;1.53;0.67;;;;;;;-144.99;100.00;67352.69;5016207;28;20572;-78
2023/08/28 10:25:29;;;;;;;1.17;0.37;;;;;;;-144.99;100.00;67352.69;5035069;28;20216;-78
2023/08/28 10:27:56;;;;;;;0.97;0.40;;;;;;;-144.99;100.00;67352.69;5033910;28;20598;-78
2023/08/28 10:30:22;;;;;;;0.00;0.00;;;;;;;-144.99;100.00;67352.69;5034024;28;20207;-79
2023/08/28 10:32:49;;;;;;;0.10;0.10;;;;;;;-144.99;100.00;67352.69;5016534;28;20206;-78
2023/08/28 10:35:16;;;;;;;0.50;0.50;;;;;;;-144.99;100.00;67352.69;5016478;28;20210;-78
2023/08/28 10:37:43;;;;;;;0.00;0.00;;;;;;;-144.99;100.00;67352.69;5034485;28;20184;-79
2023/08/28 10:40:11;;;;;;;0.23;0.23;;;;;;;-144.99;100.00;67352.69;5035170;28;20183;-78
2023/08/28 10:42:37;;;;;;;0.47;0.47;;;;;;;-144.99;100.00;67352.69;5035144;28;20215;-78
2023/08/28 10:45:03;;;;;;;0.70;0.70;;;;;;;-144.99;100.00;67352.69;5035033;28;20200;-79
2023/08/28 10:47:28;;;;;;;0.00;0.00;;;;;;;-144.99;100.00;67352.69;5034007;28;20196;-80
2023/08/28 10:49:55;;;;;;;0.00;0.00;;;;;;;-144.99;100.00;67352.69;5034283;28;20813;-79
2023/08/28 10:52:22;;;;;;;0.30;0.17;;;;;;;-144.99;100.00;67352.69;5033897;28;20616;-80
2023/08/28 10:54:47;;;;;;;0.20;0.20;;;;;;;-144.99;100.00;67352.69;4995856;28;20276;-79
2023/08/28 10:57:24;;;;;;;0.50;0.50;;;;;;;-144.99;100.00;67352.69;5013607;28;20200;-79
2023/08/28 10:59:50;;;;;;;0.00;0.00;;;;;;;-144.99;100.00;67352.69;5015211;28;20187;-79
2023/08/28 11:02:16;;;;;;;0.00;0.00;;;;;;;-144.99;100.00;67352.69;5014324;28;20184;-78
2023/08/28 11:04:41;;;;;;;1.70;0.40;;;;;;;-144.99;100.00;67352.69;5030913;28;20199;-79
2023/08/28 11:07:21;;;;;;;0.20;0.20;;;;;;;-144.99;100.00;67352.69;5034094;28;20654;-78